createdAt,value
2019-04-11T00:00:04.244Z,288.26
2019-04-11T00:01:04.527Z,287.47
2019-04-11T00:02:04.917Z,288.39
2019-04-11T00:03:05.293Z,288.06
2019-04-11T00:04:06.088Z,288.35
2019-04-11T00:05:06.396Z,288.13
2019-04-11T00:06:07.438Z,288.20
2019-04-11T00:07:07.846Z,288.38
2019-04-11T00:08:07.971Z,288.63
2019-04-11T00:09:08.177Z,288.36
2019-04-11T00:10:08.239Z,287.82
2019-04-11T00:11:09.343Z,288.17
2019-04-11T00:12:08.570Z,288.31
2019-04-11T00:13:17.087Z,288.05
2019-04-11T00:14:10.332Z,288.28
2019-04-11T00:15:10.650Z,288.39
2019-04-11T00:16:10.429Z,288.27
2019-04-11T00:17:10.517Z,287.92
2019-04-11T00:18:10.935Z,288.44
2019-04-11T00:19:12.162Z,288.52
2019-04-11T00:20:11.827Z,288.13
2019-04-11T00:21:12.834Z,288.15
2019-04-11T00:22:13.161Z,287.75
2019-04-11T00:23:12.802Z,289.05
2019-04-11T00:24:13.204Z,288.72
2019-04-11T00:25:13.622Z,288.34
2019-04-11T00:26:13.932Z,287.88
2019-04-11T00:27:14.943Z,288.74
2019-04-11T00:28:15.319Z,288.43
2019-04-11T00:29:15.050Z,288.03
2019-04-11T00:30:15.652Z,288.73
2019-04-11T00:31:16.720Z,288.52
2019-04-11T00:32:17.088Z,288.13
2019-04-11T00:33:16.593Z,288.53
2019-04-11T00:34:16.934Z,288.09
2019-04-11T00:35:17.582Z,288.26
2019-04-11T00:36:17.677Z,288.49
2019-04-11T00:37:19.059Z,288.50
2019-04-11T00:38:18.440Z,287.98
2019-04-11T00:39:19.483Z,288.40
2019-04-11T00:40:19.933Z,288.50
2019-04-11T00:41:19.721Z,288.41
2019-04-11T00:42:20.742Z,288.38
2019-04-11T00:43:30.615Z,288.21
2019-04-11T00:44:21.683Z,288.17
2019-04-11T00:45:21.281Z,288.46
2019-04-11T00:46:22.449Z,289.32
2019-04-11T00:47:22.723Z,288.12
2019-04-11T00:48:22.173Z,288.86
2019-04-11T00:49:22.654Z,288.45
2019-04-11T00:50:23.253Z,288.25
2019-04-11T00:51:23.568Z,288.30
2019-04-11T00:52:23.670Z,288.73
2019-04-11T00:53:24.052Z,288.96
2019-04-11T00:54:24.784Z,288.79
2019-04-11T00:55:24.810Z,288.47
2019-04-11T00:56:26.183Z,289.06
2019-04-11T00:57:25.604Z,288.78
2019-04-11T00:58:25.897Z,288.40
2019-04-11T00:59:26.699Z,288.95
2019-04-11T01:00:27.080Z,288.32
2019-04-11T01:01:28.116Z,288.50
2019-04-11T01:02:27.442Z,288.57
2019-04-11T01:03:28.393Z,288.81
2019-04-11T01:04:28.168Z,288.51
2019-04-11T01:05:29.716Z,289.10
2019-04-11T01:06:30.019Z,289.08
2019-04-11T01:07:29.296Z,288.43
2019-04-11T01:08:29.677Z,289.14
2019-04-11T01:09:30.523Z,289.26
2019-04-11T01:10:30.404Z,288.93
2019-04-11T01:11:30.784Z,288.45
2019-04-11T01:12:32.259Z,288.15
2019-04-11T01:13:39.756Z,288.47
2019-04-11T01:14:34.049Z,288.43
2019-04-11T01:15:32.378Z,288.71
2019-04-11T01:16:32.668Z,289.05
2019-04-11T01:17:33.636Z,288.95
2019-04-11T01:18:33.984Z,288.28
2019-04-11T01:19:35.037Z,289.21
2019-04-11T01:20:34.179Z,289.14
2019-04-11T01:21:34.862Z,289.02
2019-04-11T01:22:35.290Z,288.80
2019-04-11T01:23:35.559Z,289.16
2019-04-11T01:24:35.908Z,289.15
2019-04-11T01:25:36.872Z,289.13
2019-04-11T01:26:37.171Z,289.02
2019-04-11T01:27:39.417Z,289.01
2019-04-11T01:28:38.539Z,289.09
2019-04-11T01:29:37.834Z,289.38
2019-04-11T01:30:38.785Z,289.07
2019-04-11T01:31:38.555Z,288.72
2019-04-11T01:32:38.935Z,288.99
2019-04-11T01:33:40.177Z,289.05
2019-04-11T01:34:40.444Z,288.56
2019-04-11T01:35:40.075Z,288.80
2019-04-11T01:36:40.474Z,289.17
2019-04-11T01:37:41.866Z,288.65
2019-04-11T01:38:41.236Z,289.19
2019-04-11T01:39:41.558Z,289.06
2019-04-11T01:40:42.260Z,289.19
2019-04-11T01:41:42.628Z,288.93
2019-04-11T01:42:43.653Z,289.26
2019-04-11T01:43:52.700Z,289.11
2019-04-11T01:44:45.835Z,289.26
2019-04-11T01:45:43.828Z,289.47
2019-04-11T01:46:44.470Z,288.66
2019-04-11T01:47:44.830Z,289.45
2019-04-11T01:48:45.899Z,289.33
2019-04-11T01:49:46.185Z,289.03
2019-04-11T01:50:45.694Z,289.99
2019-04-11T01:51:46.109Z,290.36
2019-04-11T01:52:46.684Z,290.97
2019-04-11T01:53:46.941Z,291.66
2019-04-11T01:54:47.975Z,292.26
2019-04-11T01:55:48.362Z,289.98
2019-04-11T01:56:47.994Z,289.45
2019-04-11T01:57:48.335Z,289.83
2019-04-11T01:58:48.911Z,289.79
2019-04-11T01:59:49.061Z,289.65
2019-04-11T02:00:50.819Z,290.39
2019-04-11T02:01:49.870Z,290.68
2019-04-11T02:02:50.704Z,289.75
2019-04-11T02:03:51.700Z,289.53
2019-04-11T02:04:50.934Z,290.12
2019-04-11T02:05:51.566Z,289.51
2019-04-11T02:06:51.743Z,288.88
2019-04-11T02:07:53.157Z,289.12
2019-04-11T02:08:52.484Z,289.00
2019-04-11T02:09:52.828Z,288.80
2019-04-11T02:10:53.188Z,289.18
2019-04-11T02:11:54.038Z,288.98
2019-04-11T02:12:53.939Z,289.23
2019-04-11T02:14:05.097Z,289.21
2019-04-11T02:14:55.689Z,289.33
2019-04-11T02:15:55.774Z,289.40
2019-04-11T02:16:55.461Z,288.52
2019-04-11T02:17:55.815Z,288.97
2019-04-11T02:18:56.202Z,289.45
2019-04-11T02:19:56.637Z,288.81
2019-04-11T02:20:57.596Z,289.40
2019-04-11T02:21:57.922Z,290.03
2019-04-11T02:22:57.658Z,288.92
2019-04-11T02:23:58.050Z,289.04
2019-04-11T02:24:59.095Z,289.06
2019-04-11T02:25:58.792Z,289.54
2019-04-11T02:26:59.214Z,289.30
2019-04-11T02:28:00.085Z,289.15
2019-04-11T02:28:59.972Z,290.30
2019-04-11T02:30:01.069Z,289.91
2019-04-11T02:31:02.503Z,288.87
2019-04-11T02:32:02.811Z,289.15
2019-04-11T02:33:01.444Z,288.58
2019-04-11T02:34:02.415Z,288.84
2019-04-11T02:35:04.376Z,288.12
2019-04-11T02:36:03.065Z,288.74
2019-04-11T02:37:03.040Z,289.27
2019-04-11T02:38:04.872Z,288.49
2019-04-11T02:39:07.277Z,288.90
2019-04-11T02:40:05.518Z,288.89
2019-04-11T02:41:06.091Z,288.26
2019-04-11T02:42:06.325Z,288.08
2019-04-11T02:43:07.069Z,289.03
2019-04-11T02:44:07.226Z,289.11
2019-04-11T02:45:23.074Z,289.00
2019-04-11T02:46:17.317Z,287.59
2019-04-11T02:47:11.786Z,288.46
2019-04-11T02:48:09.314Z,288.38
2019-04-11T02:49:08.087Z,288.69
2019-04-11T02:50:08.244Z,288.40
2019-04-11T02:51:09.768Z,288.83
2019-04-11T02:52:09.483Z,289.02
2019-04-11T02:53:09.352Z,289.30
2019-04-11T02:54:09.297Z,288.58
2019-04-11T02:55:10.152Z,288.54
2019-04-11T02:56:11.292Z,288.22
2019-04-11T02:57:11.877Z,288.76
2019-04-11T02:58:12.325Z,288.65
2019-04-11T02:59:11.285Z,288.23
2019-04-11T03:00:13.003Z,288.94
2019-04-11T03:01:12.395Z,288.76
2019-04-11T03:02:14.709Z,289.03
2019-04-11T03:03:13.041Z,288.82
2019-04-11T03:04:14.738Z,288.92
2019-04-11T03:05:13.833Z,289.60
2019-04-11T03:06:14.943Z,289.24
2019-04-11T03:07:14.560Z,289.02
2019-04-11T03:08:16.499Z,288.90
2019-04-11T03:09:15.358Z,288.75
2019-04-11T03:10:16.429Z,288.63
2019-04-11T03:11:16.658Z,288.75
2019-04-11T03:12:16.066Z,288.88
2019-04-11T03:13:16.793Z,289.81
2019-04-11T03:14:18.562Z,289.45
2019-04-11T03:15:31.661Z,289.40
2019-04-11T03:16:27.865Z,289.35
2019-04-11T03:17:23.123Z,288.95
2019-04-11T03:18:35.540Z,289.13
2019-04-11T03:19:35.242Z,288.75
2019-04-11T03:20:26.516Z,288.97
2019-04-11T03:21:22.043Z,288.58
2019-04-11T03:22:20.258Z,288.38
2019-04-11T03:23:21.034Z,289.22
2019-04-11T03:24:21.871Z,288.68
2019-04-11T03:25:22.421Z,288.81
2019-04-11T03:26:21.574Z,289.08
2019-04-11T03:27:22.400Z,288.10
2019-04-11T03:28:23.845Z,289.23
2019-04-11T03:29:24.306Z,289.26
2019-04-11T03:30:30.214Z,289.21
2019-04-11T03:32:05.756Z,289.69
2019-04-11T03:33:32.878Z,289.66
2019-04-11T03:34:16.358Z,289.75
2019-04-11T03:35:11.967Z,290.12
2019-04-11T03:37:49.900Z,289.12
2019-04-11T03:38:46.951Z,289.30
2019-04-11T03:39:48.081Z,290.02
2019-04-11T03:40:43.189Z,290.60
2019-04-11T03:41:42.725Z,290.39
2019-04-11T03:42:38.041Z,289.71
2019-04-11T03:43:38.000Z,289.46
2019-04-11T03:44:35.231Z,289.06
2019-04-11T03:45:48.346Z,289.42
2019-04-11T03:46:42.164Z,289.58
2019-04-11T03:47:40.983Z,289.18
2019-04-11T03:48:40.997Z,288.76
2019-04-11T03:49:39.854Z,289.77
2019-04-11T03:50:32.229Z,289.03
2019-04-11T03:51:30.823Z,289.34
2019-04-11T03:52:32.612Z,289.73
2019-04-11T03:53:32.075Z,289.65
2019-04-11T03:54:32.424Z,289.07
2019-04-11T03:55:32.505Z,289.82
2019-04-11T03:56:33.023Z,290.44
2019-04-11T03:57:34.213Z,290.25
2019-04-11T03:58:33.672Z,289.85
2019-04-11T03:59:36.027Z,290.44
2019-04-11T04:00:36.235Z,290.27
2019-04-11T04:01:34.889Z,290.08
2019-04-11T04:02:34.981Z,289.47
2019-04-11T04:03:36.512Z,290.92
2019-04-11T04:04:36.959Z,290.11
2019-04-11T04:05:36.764Z,289.91
2019-04-11T04:06:37.418Z,289.93
2019-04-11T04:07:38.019Z,290.24
2019-04-11T04:08:38.577Z,290.50
2019-04-11T04:09:39.512Z,290.02
2019-04-11T04:10:39.387Z,290.04
2019-04-11T04:11:38.515Z,290.18
2019-04-11T04:12:40.176Z,291.18
2019-04-11T04:13:39.562Z,290.93
2019-04-11T04:14:41.276Z,290.29
2019-04-11T04:15:51.946Z,291.05
2019-04-11T04:16:45.673Z,290.00
2019-04-11T04:17:43.212Z,290.00
2019-04-11T04:18:40.877Z,290.27
2019-04-11T04:19:41.214Z,291.32
2019-04-11T04:20:42.010Z,290.74
2019-04-11T04:21:42.793Z,290.80
2019-04-11T04:22:44.013Z,290.46
2019-04-11T04:23:43.219Z,291.31
2019-04-11T04:24:44.815Z,290.77
2019-04-11T04:25:45.655Z,290.56
2019-04-11T04:26:43.874Z,291.46
2019-04-11T04:27:45.038Z,291.35
2019-04-11T04:28:45.151Z,291.74
2019-04-11T04:29:46.674Z,292.55
2019-04-11T04:30:46.936Z,293.00
2019-04-11T04:31:46.654Z,291.79
2019-04-11T04:32:47.170Z,293.18
2019-04-11T04:33:47.536Z,292.04
2019-04-11T04:34:48.615Z,292.91
2019-04-11T04:35:47.535Z,293.71
2019-04-11T04:36:49.200Z,293.02
2019-04-11T04:37:49.830Z,292.25
2019-04-11T04:38:48.674Z,292.14
2019-04-11T04:39:51.613Z,292.68
2019-04-11T04:41:00.311Z,292.46
2019-04-11T04:41:58.210Z,291.35
2019-04-11T04:42:53.307Z,292.66
2019-04-11T04:43:50.756Z,292.25
2019-04-11T04:44:51.015Z,291.45
2019-04-11T04:46:08.531Z,291.41
2019-04-11T04:47:00.149Z,291.66
2019-04-11T04:47:58.224Z,292.26
2019-04-11T04:48:53.882Z,292.09
2019-04-11T04:49:54.182Z,291.47
2019-04-11T04:50:56.329Z,290.92
2019-04-11T04:51:55.475Z,291.35
2019-04-11T04:52:55.720Z,290.93
2019-04-11T04:53:55.671Z,290.95
2019-04-11T04:54:55.074Z,291.26
2019-04-11T04:55:55.023Z,292.59
2019-04-11T04:56:55.415Z,292.04
2019-04-11T04:57:57.539Z,291.07
2019-04-11T04:58:56.154Z,291.23
2019-04-11T04:59:57.838Z,290.96
2019-04-11T05:00:58.417Z,291.98
2019-04-11T05:01:57.277Z,291.06
2019-04-11T05:02:59.408Z,291.26
2019-04-11T05:03:58.279Z,291.25
2019-04-11T05:04:58.741Z,291.14
2019-04-11T05:06:00.794Z,291.00
2019-04-11T05:06:59.165Z,291.02
2019-04-11T05:08:00.522Z,291.95
2019-04-11T05:09:00.245Z,291.47
2019-04-11T05:10:00.898Z,290.85
2019-04-11T05:11:02.098Z,290.48
2019-04-11T05:12:01.405Z,290.73
2019-04-11T05:13:01.372Z,290.88
2019-04-11T05:14:02.926Z,290.63
2019-04-11T05:15:03.544Z,290.20
2019-04-11T05:16:11.880Z,290.91
2019-04-11T05:17:03.912Z,291.12
2019-04-11T05:18:04.112Z,291.19
2019-04-11T05:19:04.493Z,290.89
2019-04-11T05:20:05.021Z,291.18
2019-04-11T05:21:05.267Z,290.78
2019-04-11T05:22:04.807Z,290.32
2019-04-11T05:23:06.238Z,291.22
2019-04-11T05:24:06.230Z,291.39
2019-04-11T05:25:06.692Z,291.03
2019-04-11T05:26:06.826Z,291.08
2019-04-11T05:27:06.602Z,291.17
2019-04-11T05:28:06.974Z,291.43
2019-04-11T05:29:07.385Z,291.16
2019-04-11T05:30:07.988Z,291.23
2019-04-11T05:31:08.203Z,290.83
2019-04-11T05:32:09.372Z,290.95
2019-04-11T05:33:09.574Z,290.22
2019-04-11T05:34:09.943Z,290.62
2019-04-11T05:35:09.611Z,290.83
2019-04-11T05:36:10.187Z,290.58
2019-04-11T05:37:11.040Z,290.90
2019-04-11T05:38:10.752Z,290.43
2019-04-11T05:39:11.201Z,290.92
2019-04-11T05:40:12.627Z,289.92
2019-04-11T05:41:12.342Z,290.98
2019-04-11T05:42:15.879Z,290.54
2019-04-11T05:43:13.616Z,291.11
2019-04-11T05:44:12.996Z,290.71
2019-04-11T05:45:16.893Z,291.03
2019-04-11T05:46:26.352Z,291.09
2019-04-11T05:47:18.155Z,290.96
2019-04-11T05:48:15.628Z,290.42
2019-04-11T05:49:14.893Z,290.15
2019-04-11T05:50:15.894Z,290.37
2019-04-11T05:51:18.552Z,290.36
2019-04-11T05:52:17.781Z,290.35
2019-04-11T05:53:18.559Z,290.83
2019-04-11T05:54:16.775Z,292.53
2019-04-11T05:55:17.611Z,291.00
2019-04-11T05:56:18.722Z,291.09
2019-04-11T05:57:21.205Z,291.24
2019-04-11T05:58:19.623Z,290.86
2019-04-11T05:59:19.815Z,291.03
2019-04-11T06:00:19.383Z,291.30
2019-04-11T06:01:20.268Z,290.67
2019-04-11T06:02:19.806Z,290.78
2019-04-11T06:03:20.228Z,291.32
2019-04-11T06:04:23.309Z,291.10
2019-04-11T06:05:23.738Z,291.14
2019-04-11T06:06:21.394Z,291.25
2019-04-11T06:07:21.713Z,290.81
2019-04-11T06:08:26.602Z,291.66
2019-04-11T06:09:23.627Z,291.25
2019-04-11T06:10:24.019Z,291.83
2019-04-11T06:11:24.021Z,291.06
2019-04-11T06:12:23.695Z,291.28
2019-04-11T06:13:24.665Z,291.13
2019-04-11T06:14:25.038Z,290.89
2019-04-11T06:15:25.015Z,291.58
2019-04-11T06:16:35.680Z,291.01
2019-04-11T06:17:26.456Z,290.49
2019-04-11T06:18:30.562Z,291.35
2019-04-11T06:19:28.241Z,290.48
2019-04-11T06:20:27.152Z,290.76
2019-04-11T06:21:28.289Z,290.61
2019-04-11T06:22:27.560Z,290.07
2019-04-11T06:23:27.799Z,290.82
2019-04-11T06:24:28.174Z,291.25
2019-04-11T06:25:30.219Z,290.31
2019-04-11T06:26:30.307Z,290.74
2019-04-11T06:27:30.377Z,290.93
2019-04-11T06:28:30.692Z,290.67
2019-04-11T06:29:31.109Z,291.29
2019-04-11T06:30:30.535Z,291.20
2019-04-11T06:31:31.743Z,290.46
2019-04-11T06:32:31.923Z,290.43
2019-04-11T06:33:32.213Z,290.42
2019-04-11T06:34:31.895Z,290.58
2019-04-11T06:35:32.345Z,290.83
2019-04-11T06:36:32.743Z,289.66
2019-04-11T06:37:33.974Z,289.29
2019-04-11T06:38:34.356Z,289.43
2019-04-11T06:39:33.751Z,290.37
2019-04-11T06:40:34.652Z,290.35
2019-04-11T06:41:34.755Z,289.23
2019-04-11T06:42:35.034Z,289.83
2019-04-11T06:43:36.244Z,290.59
2019-04-11T06:44:35.689Z,289.32
2019-04-11T06:45:36.140Z,290.12
2019-04-11T06:46:42.813Z,289.42
2019-04-11T06:47:37.789Z,289.27
2019-04-11T06:48:38.012Z,289.65
2019-04-11T06:49:38.385Z,289.62
2019-04-11T06:50:37.946Z,289.76
2019-04-11T06:51:38.301Z,289.73
2019-04-11T06:52:39.098Z,289.76
2019-04-11T06:53:39.943Z,289.90
2019-04-11T06:54:39.446Z,290.00
2019-04-11T06:55:39.824Z,291.85
2019-04-11T06:56:41.194Z,290.78
2019-04-11T06:57:40.572Z,290.66
2019-04-11T06:58:40.958Z,289.44
2019-04-11T06:59:41.322Z,289.43
2019-04-11T07:00:41.731Z,289.83
2019-04-11T07:01:42.614Z,289.22
2019-04-11T07:02:42.429Z,289.41
2019-04-11T07:03:42.846Z,289.16
2019-04-11T07:04:44.056Z,288.60
2019-04-11T07:05:43.634Z,289.33
2019-04-11T07:06:43.951Z,288.11
2019-04-11T07:07:45.105Z,289.28
2019-04-11T07:08:44.816Z,288.97
2019-04-11T07:09:45.169Z,289.45
2019-04-11T07:10:45.426Z,289.81
2019-04-11T07:11:45.813Z,288.62
2019-04-11T07:12:47.150Z,290.22
2019-04-11T07:13:47.613Z,289.26
2019-04-11T07:14:47.576Z,288.74
2019-04-11T07:15:48.333Z,288.85
2019-04-11T07:16:59.154Z,288.81
2019-04-11T07:17:49.095Z,288.88
2019-04-11T07:18:48.436Z,288.12
2019-04-11T07:19:48.800Z,288.00
2019-04-11T07:20:49.899Z,288.03
2019-04-11T07:21:50.323Z,288.56
2019-04-11T07:22:50.960Z,288.22
2019-04-11T07:23:51.301Z,288.90
2019-04-11T07:24:50.670Z,288.91
2019-04-11T07:25:51.778Z,290.24
2019-04-11T07:26:52.125Z,290.41
2019-04-11T07:27:52.715Z,290.47
2019-04-11T07:28:52.325Z,289.29
2019-04-11T07:29:52.581Z,290.62
2019-04-11T07:30:53.857Z,289.16
2019-04-11T07:31:54.728Z,289.51
2019-04-11T07:32:54.996Z,289.25
2019-04-11T07:33:54.125Z,288.77
2019-04-11T07:34:54.610Z,288.24
2019-04-11T07:35:55.139Z,288.70
2019-04-11T07:36:55.780Z,289.21
2019-04-11T07:37:55.612Z,288.48
2019-04-11T07:38:56.675Z,288.91
2019-04-11T07:39:56.363Z,291.28
2019-04-11T07:40:56.745Z,289.50
2019-04-11T07:41:58.076Z,288.85
2019-04-11T07:43:00.855Z,288.54
2019-04-11T07:43:58.879Z,288.83
2019-04-11T07:44:58.237Z,288.56
2019-04-11T07:45:58.632Z,288.72
2019-04-11T07:47:00.220Z,288.57
2019-04-11T07:48:00.505Z,289.09
2019-04-11T07:48:59.757Z,288.41
2019-04-11T07:50:00.123Z,288.75
2019-04-11T07:51:01.899Z,287.67
2019-04-11T07:52:00.842Z,287.98
2019-04-11T07:53:01.557Z,288.20
2019-04-11T07:54:02.574Z,287.79
2019-04-11T07:55:02.618Z,288.54
2019-04-11T07:56:03.556Z,289.23
2019-04-11T07:57:03.944Z,289.35
2019-04-11T07:58:04.331Z,289.61
2019-04-11T07:59:03.522Z,290.20
2019-04-11T08:00:03.964Z,289.16
2019-04-11T08:01:04.260Z,287.55
2019-04-11T08:02:05.693Z,287.15
2019-04-11T08:03:06.302Z,289.00
2019-04-11T08:04:06.022Z,288.73
2019-04-11T08:05:06.637Z,288.47
2019-04-11T08:06:07.378Z,286.65
2019-04-11T08:07:06.634Z,286.54
2019-04-11T08:08:07.959Z,289.21
2019-04-11T08:09:07.276Z,287.11
2019-04-11T08:10:08.204Z,287.42
2019-04-11T08:11:08.017Z,287.29
2019-04-11T08:12:08.734Z,287.26
2019-04-11T08:13:08.771Z,287.95
2019-04-11T08:14:10.394Z,287.85
2019-04-11T08:15:09.510Z,287.58
2019-04-11T08:16:10.560Z,287.83
2019-04-11T08:17:11.377Z,288.05
2019-04-11T08:18:10.651Z,287.51
2019-04-11T08:19:11.054Z,297.97
2019-04-11T08:20:11.394Z,288.65
2019-04-11T08:21:12.135Z,288.02
2019-04-11T08:22:12.206Z,288.27
2019-04-11T08:23:13.719Z,288.45
2019-04-11T08:24:13.048Z,288.04
2019-04-11T08:25:13.340Z,288.49
2019-04-11T08:26:13.711Z,287.75
2019-04-11T08:27:14.088Z,287.32
2019-04-11T08:28:14.415Z,287.65
2019-04-11T08:29:15.565Z,287.04
2019-04-11T08:30:15.158Z,287.08
2019-04-11T08:31:15.549Z,286.30
2019-04-11T08:32:15.977Z,287.20
2019-04-11T08:33:16.364Z,286.38
2019-04-11T08:34:17.250Z,287.09
2019-04-11T08:35:17.696Z,285.35
2019-04-11T08:36:17.718Z,286.59
2019-04-11T08:37:19.230Z,287.73
2019-04-11T08:38:18.495Z,286.51
2019-04-11T08:39:18.556Z,285.59
2019-04-11T08:40:19.826Z,284.17
2019-04-11T08:41:19.725Z,286.14
2019-04-11T08:42:19.692Z,285.17
2019-04-11T08:43:21.062Z,285.20
2019-04-11T08:44:20.488Z,285.86
2019-04-11T08:45:21.570Z,284.70
2019-04-11T08:46:21.188Z,285.26
2019-04-11T08:47:22.456Z,284.31
2019-04-11T08:48:21.917Z,285.87
2019-04-11T08:49:23.670Z,284.50
2019-04-11T08:50:22.785Z,285.85
2019-04-11T08:51:23.222Z,284.80
2019-04-11T08:52:24.297Z,284.40
2019-04-11T08:53:24.657Z,284.91
2019-04-11T08:54:24.191Z,285.95
2019-04-11T08:55:24.531Z,288.41
2019-04-11T08:56:25.083Z,287.65
2019-04-11T08:57:25.475Z,286.17
2019-04-11T08:58:26.698Z,287.09
2019-04-11T08:59:27.122Z,285.02
2019-04-11T09:00:26.405Z,287.22
2019-04-11T09:01:27.735Z,286.63
2019-04-11T09:02:27.193Z,286.99
2019-04-11T09:03:27.530Z,288.26
2019-04-11T09:04:28.035Z,286.45
2019-04-11T09:05:29.141Z,287.10
2019-04-11T09:06:28.642Z,285.21
2019-04-11T09:07:29.685Z,287.03
2019-04-11T09:08:30.080Z,283.92
2019-04-11T09:09:29.824Z,284.66
2019-04-11T09:10:30.148Z,285.56
2019-04-11T09:11:30.919Z,284.73
2019-04-11T09:12:30.948Z,285.00
2019-04-11T09:13:31.372Z,285.44
2019-04-11T09:14:32.462Z,282.73
2019-04-11T09:15:32.924Z,282.64
2019-04-11T09:16:32.427Z,285.65
2019-04-11T09:17:32.852Z,283.42
2019-04-11T09:18:34.165Z,286.20
2019-04-11T09:19:34.545Z,285.64
2019-04-11T09:20:34.066Z,285.19
2019-04-11T09:21:34.314Z,286.00
2019-04-11T09:22:35.345Z,285.52
2019-04-11T09:23:35.698Z,286.78
2019-04-11T09:24:36.698Z,287.04
2019-04-11T09:25:36.930Z,286.76
2019-04-11T09:26:36.171Z,287.62
2019-04-11T09:27:36.627Z,288.61
2019-04-11T09:28:37.720Z,286.82
2019-04-11T09:29:37.876Z,285.45
2019-04-11T09:30:38.881Z,285.28
2019-04-11T09:31:38.059Z,286.28
2019-04-11T09:32:38.465Z,285.70
2019-04-11T09:33:39.680Z,283.82
2019-04-11T09:34:39.413Z,284.73
2019-04-11T09:35:39.583Z,284.48
2019-04-11T09:36:40.913Z,285.23
2019-04-11T09:37:40.348Z,284.49
2019-04-11T09:38:40.723Z,285.63
2019-04-11T09:39:41.419Z,285.86
2019-04-11T09:40:41.687Z,286.19
2019-04-11T09:41:42.736Z,285.34
2019-04-11T09:42:43.099Z,283.32
2019-04-11T09:43:42.541Z,284.38
2019-04-11T09:44:42.897Z,283.81
2019-04-11T09:45:43.914Z,284.72
2019-04-11T09:46:43.704Z,284.02
2019-04-11T09:47:44.097Z,284.71
2019-04-11T09:48:44.532Z,285.31
2019-04-11T09:49:45.020Z,285.43
2019-04-11T09:50:45.179Z,285.83
2019-04-11T09:51:45.549Z,285.00
2019-04-11T09:52:45.948Z,284.58
2019-04-11T09:53:47.242Z,285.26
2019-04-11T09:54:46.674Z,286.42
2019-04-11T09:55:47.899Z,287.07
2019-04-11T09:56:47.410Z,285.96
2019-04-11T09:57:48.186Z,286.04
2019-04-11T09:58:48.162Z,284.54
2019-04-11T09:59:49.623Z,286.17
2019-04-11T10:00:48.945Z,285.90
2019-04-11T10:01:49.605Z,285.60
2019-04-11T10:02:50.564Z,286.23
2019-04-11T10:03:50.792Z,288.35
2019-04-11T10:04:50.422Z,286.32
2019-04-11T10:05:51.585Z,287.23
2019-04-11T10:06:51.168Z,285.16
2019-04-11T10:07:52.324Z,287.73
2019-04-11T10:08:52.093Z,288.26
2019-04-11T10:09:52.441Z,289.16
2019-04-11T10:10:53.246Z,288.90
2019-04-11T10:11:53.100Z,287.90
2019-04-11T10:12:54.192Z,285.54
2019-04-11T10:13:53.791Z,285.80
2019-04-11T10:14:54.164Z,286.44
2019-04-11T10:15:55.628Z,285.43
2019-04-11T10:16:56.062Z,285.23
2019-04-11T10:17:55.305Z,285.58
2019-04-11T10:18:55.735Z,285.68
2019-04-11T10:19:56.215Z,285.70
2019-04-11T10:20:57.132Z,285.47
2019-04-11T10:21:56.804Z,288.64
2019-04-11T10:22:58.333Z,286.31
2019-04-11T10:23:58.864Z,286.36
2019-04-11T10:24:58.907Z,284.86
2019-04-11T10:25:59.304Z,285.04
2019-04-11T10:26:58.689Z,285.79
2019-04-11T10:27:59.108Z,286.21
2019-04-11T10:29:00.254Z,287.49
2019-04-11T10:30:00.873Z,287.83
2019-04-11T10:31:00.223Z,288.00
2019-04-11T10:32:01.150Z,287.91
2019-04-11T10:33:00.966Z,286.22
2019-04-11T10:34:02.828Z,286.88
2019-04-11T10:35:01.875Z,287.38
2019-04-11T10:36:02.982Z,285.96
2019-04-11T10:37:03.463Z,287.24
2019-04-11T10:38:02.843Z,286.90
2019-04-11T10:39:03.206Z,286.67
2019-04-11T10:40:03.988Z,287.43
2019-04-11T10:41:04.195Z,286.23
2019-04-11T10:42:04.421Z,286.48
2019-04-11T10:43:04.736Z,285.88
2019-04-11T10:44:05.559Z,284.78
2019-04-11T10:45:06.578Z,285.42
2019-04-11T10:46:07.056Z,285.48
2019-04-11T10:47:07.264Z,285.16
2019-04-11T10:48:06.597Z,285.86
2019-04-11T10:49:07.494Z,286.92
2019-04-11T10:50:07.333Z,287.18
2019-04-11T10:51:08.743Z,286.51
2019-04-11T10:52:08.100Z,286.03
2019-04-11T10:53:08.944Z,286.13
2019-04-11T10:54:08.831Z,285.91
2019-04-11T10:55:09.406Z,286.77
2019-04-11T10:56:10.609Z,286.56
2019-04-11T10:57:09.942Z,285.87
2019-04-11T10:58:10.839Z,286.37
2019-04-11T10:59:10.702Z,287.02
2019-04-11T11:00:11.161Z,286.91
2019-04-11T11:01:11.539Z,287.14
2019-04-11T11:02:12.701Z,287.80
2019-04-11T11:03:12.200Z,287.51
2019-04-11T11:04:13.667Z,289.01
2019-04-11T11:05:12.946Z,290.03
2019-04-11T11:06:13.609Z,286.49
2019-04-11T11:07:13.718Z,288.23
2019-04-11T11:08:15.286Z,287.98
2019-04-11T11:09:14.460Z,288.58
2019-04-11T11:10:15.407Z,288.45
2019-04-11T11:11:15.976Z,288.21
2019-04-11T11:12:15.571Z,287.54
2019-04-11T11:13:16.037Z,288.07
2019-04-11T11:14:16.580Z,292.57
2019-04-11T11:15:17.653Z,289.96
2019-04-11T11:16:17.077Z,287.85
2019-04-11T11:17:38.994Z,286.76
2019-04-11T11:18:44.074Z,287.15
2019-04-11T11:19:37.522Z,287.19
2019-04-11T11:20:26.072Z,286.03
2019-04-11T11:21:19.951Z,285.98
2019-04-11T11:22:19.364Z,286.84
2019-04-11T11:23:20.479Z,285.18
2019-04-11T11:24:20.097Z,286.42
2019-04-11T11:25:20.470Z,285.35
2019-04-11T11:26:22.629Z,286.08
2019-04-11T11:27:22.231Z,287.67
2019-04-11T11:28:21.591Z,287.38
2019-04-11T11:29:22.035Z,286.71
2019-04-11T11:30:23.092Z,286.99
2019-04-11T11:31:22.713Z,287.32
2019-04-11T11:32:23.123Z,287.17
2019-04-11T11:33:23.892Z,289.38
2019-04-11T11:34:24.799Z,289.40
2019-04-11T11:35:27.661Z,288.42
2019-04-11T11:36:25.713Z,289.25
2019-04-11T11:37:25.007Z,288.42
2019-04-11T11:38:26.003Z,289.77
2019-04-11T11:39:26.806Z,289.55
2019-04-11T11:40:26.097Z,286.83
2019-04-11T11:41:26.448Z,287.14
2019-04-11T11:42:26.893Z,286.86
2019-04-11T11:43:27.515Z,286.37
2019-04-11T11:44:28.631Z,287.78
2019-04-11T11:45:27.976Z,287.70
2019-04-11T11:46:29.739Z,288.25
2019-04-11T11:47:32.689Z,286.32
2019-04-11T11:48:31.161Z,286.68
2019-04-11T11:49:42.426Z,286.99
2019-04-11T11:50:31.874Z,288.03
2019-04-11T11:51:31.196Z,288.19
2019-04-11T11:52:32.205Z,287.76
2019-04-11T11:53:31.375Z,287.93
2019-04-11T11:54:31.464Z,289.11
2019-04-11T11:55:31.737Z,288.55
2019-04-11T11:56:32.109Z,287.20
2019-04-11T11:57:32.975Z,288.37
2019-04-11T11:58:33.400Z,289.02
2019-04-11T11:59:34.375Z,288.40
2019-04-11T12:00:33.594Z,289.23
2019-04-11T12:01:33.972Z,288.21
2019-04-11T12:02:34.844Z,288.53
2019-04-11T12:03:35.173Z,288.28
2019-04-11T12:04:36.100Z,289.04
2019-04-11T12:05:36.439Z,287.84
2019-04-11T12:06:35.846Z,288.91
2019-04-11T12:07:37.425Z,289.22
2019-04-11T12:08:36.953Z,288.50
2019-04-11T12:09:36.973Z,288.72
2019-04-11T12:10:37.499Z,289.66
2019-04-11T12:11:37.940Z,288.51
2019-04-11T12:12:38.134Z,288.45
2019-04-11T12:13:40.240Z,287.34
2019-04-11T12:14:42.068Z,289.52
2019-04-11T12:15:39.336Z,289.93
2019-04-11T12:16:39.792Z,287.55
2019-04-11T12:17:40.546Z,287.58
2019-04-11T12:18:45.006Z,288.48
2019-04-11T12:19:48.856Z,287.40
2019-04-11T12:20:44.380Z,288.39
2019-04-11T12:21:41.472Z,288.17
2019-04-11T12:22:42.221Z,288.26
2019-04-11T12:23:48.671Z,288.21
2019-04-11T12:24:44.827Z,287.48
2019-04-11T12:25:43.122Z,288.26
2019-04-11T12:26:44.749Z,288.21
2019-04-11T12:27:43.812Z,287.04
2019-04-11T12:28:44.126Z,287.65
2019-04-11T12:29:47.012Z,287.56
2019-04-11T12:30:44.945Z,288.31
2019-04-11T12:31:46.063Z,287.67
2019-04-11T12:32:46.658Z,286.40
2019-04-11T12:33:46.011Z,286.98
2019-04-11T12:34:47.196Z,286.81